sensor_id;sensor_type;location;lat;lon;timestamp;P1;durP1;ratioP1;P2;durP2;ratioP2
21416;SDS011;10869;52.238;10.716;2023-07-28T03:02:02;9.20;;;3.87;;
21416;SDS011;10869;52.238;10.716;2023-07-28T03:04:29;6.93;;;3.90;;
21416;SDS011;10869;52.238;10.716;2023-07-28T03:06:54;6.13;;;3.60;;
21416;SDS011;10869;52.238;10.716;2023-07-28T03:09:21;6.57;;;3.87;;
21416;SDS011;10869;52.238;10.716;2023-07-28T03:11:47;9.93;;;3.37;;
21416;SDS011;10869;52.238;10.716;2023-07-28T03:14:12;6.07;;;3.87;;
21416;SDS011;10869;52.238;10.716;2023-07-28T03:16:38;11.17;;;4.50;;
21416;SDS011;10869;52.238;10.716;2023-07-28T03:19:05;6.97;;;3.53;;
21416;SDS011;10869;52.238;10.716;2023-07-28T03:21:32;7.63;;;3.33;;
21416;SDS011;10869;52.238;10.716;2023-07-28T03:23:58;6.67;;;3.30;;
21416;SDS011;10869;52.238;10.716;2023-07-28T03:26:24;7.10;;;2.77;;
21416;SDS011;10869;52.238;10.716;2023-07-28T03:28:50;5.13;;;3.07;;
21416;SDS011;10869;52.238;10.716;2023-07-28T03:31:15;7.13;;;3.40;;
21416;SDS011;10869;52.238;10.716;2023-07-28T03:33:41;6.77;;;2.93;;
21416;SDS011;10869;52.238;10.716;2023-07-28T03:36:07;6.70;;;2.80;;
21416;SDS011;10869;52.238;10.716;2023-07-28T03:38:36;5.83;;;2.60;;
21416;SDS011;10869;52.238;10.716;2023-07-28T03:41:02;7.23;;;2.33;;
21416;SDS011;10869;52.238;10.716;2023-07-28T03:43:27;7.20;;;2.40;;
21416;SDS011;10869;52.238;10.716;2023-07-28T03:45:53;7.73;;;3.03;;
21416;SDS011;10869;52.238;10.716;2023-07-28T03:48:19;5.73;;;2.40;;
21416;SDS011;10869;52.238;10.716;2023-07-28T03:50:45;6.43;;;2.43;;
21416;SDS011;10869;52.238;10.716;2023-07-28T03:53:10;7.60;;;2.80;;
21416;SDS011;10869;52.238;10.716;2023-07-28T03:55:36;4.70;;;2.20;;
21416;SDS011;10869;52.238;10.716;2023-07-28T03:58:02;4.37;;;2.23;;
21416;SDS011;10869;52.238;10.716;2023-07-28T04:00:28;4.47;;;2.23;;
21416;SDS011;10869;52.238;10.716;2023-07-28T04:02:54;3.63;;;1.93;;
21416;SDS011;10869;52.238;10.716;2023-07-28T04:05:20;5.23;;;2.00;;
21416;SDS011;10869;52.238;10.716;2023-07-28T04:07:45;6.87;;;2.50;;
21416;SDS011;10869;52.238;10.716;2023-07-28T04:10:11;5.10;;;2.10;;
21416;SDS011;10869;52.238;10.716;2023-07-28T04:12:37;5.13;;;2.00;;
21416;SDS011;10869;52.238;10.716;2023-07-28T04:15:02;6.33;;;2.93;;
21416;SDS011;10869;52.238;10.716;2023-07-28T04:17:28;10.07;;;2.43;;
21416;SDS011;10869;52.238;10.716;2023-07-28T04:19:54;5.57;;;1.80;;
21416;SDS011;10869;52.238;10.716;2023-07-28T04:22:23;5.07;;;2.47;;
21416;SDS011;10869;52.238;10.716;2023-07-28T04:24:49;9.17;;;2.93;;
21416;SDS011;10869;52.238;10.716;2023-07-28T04:27:15;4.00;;;2.27;;
21416;SDS011;10869;52.238;10.716;2023-07-28T04:29:40;5.83;;;2.87;;
21416;SDS011;10869;52.238;10.716;2023-07-28T04:32:09;4.37;;;2.27;;
21416;SDS011;10869;52.238;10.716;2023-07-28T04:34:35;5.33;;;2.37;;
21416;SDS011;10869;52.238;10.716;2023-07-28T04:37:01;5.27;;;2.07;;
21416;SDS011;10869;52.238;10.716;2023-07-28T04:39:27;7.23;;;2.50;;
21416;SDS011;10869;52.238;10.716;2023-07-28T04:41:53;3.93;;;2.00;;
21416;SDS011;10869;52.238;10.716;2023-07-28T04:44:18;10.70;;;2.33;;
21416;SDS011;10869;52.238;10.716;2023-07-28T04:46:45;4.43;;;2.33;;
21416;SDS011;10869;52.238;10.716;2023-07-28T04:49:13;7.10;;;2.70;;
21416;SDS011;10869;52.238;10.716;2023-07-28T04:51:39;4.80;;;2.50;;
21416;SDS011;10869;52.238;10.716;2023-07-28T04:54:05;3.73;;;2.13;;
21416;SDS011;10869;52.238;10.716;2023-07-28T04:56:30;5.10;;;2.90;;
21416;SDS011;10869;52.238;10.716;2023-07-28T04:58:56;4.90;;;2.57;;
21416;SDS011;10869;52.238;10.716;2023-07-28T05:01:23;5.13;;;2.20;;
21416;SDS011;10869;52.238;10.716;2023-07-28T05:03:49;6.50;;;3.17;;
21416;SDS011;10869;52.238;10.716;2023-07-28T05:06:15;5.23;;;2.23;;
21416;SDS011;10869;52.238;10.716;2023-07-28T05:08:41;5.20;;;2.40;;
21416;SDS011;10869;52.238;10.716;2023-07-28T05:11:07;6.80;;;2.37;;
21416;SDS011;10869;52.238;10.716;2023-07-28T05:13:32;6.67;;;2.20;;
21416;SDS011;10869;52.238;10.716;2023-07-28T05:15:58;6.23;;;2.00;;
21416;SDS011;10869;52.238;10.716;2023-07-28T05:18:25;6.13;;;2.50;;
21416;SDS011;10869;52.238;10.716;2023-07-28T05:20:50;3.77;;;2.07;;
21416;SDS011;10869;52.238;10.716;2023-07-28T05:23:16;4.23;;;2.00;;
21416;SDS011;10869;52.238;10.716;2023-07-28T05:25:43;6.13;;;2.20;;
21416;SDS011;10869;52.238;10.716;2023-07-28T05:28:09;5.47;;;1.97;;
21416;SDS011;10869;52.238;10.716;2023-07-28T05:30:36;5.47;;;2.10;;
21416;SDS011;10869;52.238;10.716;2023-07-28T05:33:03;5.63;;;2.57;;
21416;SDS011;10869;52.238;10.716;2023-07-28T05:35:29;7.53;;;2.27;;
21416;SDS011;10869;52.238;10.716;2023-07-28T05:37:55;6.07;;;1.97;;
21416;SDS011;10869;52.238;10.716;2023-07-28T05:40:24;6.83;;;1.93;;
21416;SDS011;10869;52.238;10.716;2023-07-28T05:42:50;3.93;;;1.67;;
21416;SDS011;10869;52.238;10.716;2023-07-28T05:48:40;4.37;;;1.63;;
21416;SDS011;10869;52.238;10.716;2023-07-28T05:51:09;3.97;;;1.63;;
21416;SDS011;10869;52.238;10.716;2023-07-28T05:53:38;4.80;;;2.10;;
21416;SDS011;10869;52.238;10.716;2023-07-28T05:56:06;4.43;;;1.90;;
21416;SDS011;10869;52.238;10.716;2023-07-28T05:58:35;4.17;;;2.03;;
21416;SDS011;10869;52.238;10.716;2023-07-28T06:04:23;7.00;;;2.27;;
21416;SDS011;10869;52.238;10.716;2023-07-28T06:06:49;6.00;;;2.40;;
21416;SDS011;10869;52.238;10.716;2023-07-28T06:12:37;4.97;;;2.53;;
21416;SDS011;10869;52.238;10.716;2023-07-28T06:15:03;5.17;;;2.90;;
21416;SDS011;10869;52.238;10.716;2023-07-28T06:17:29;5.17;;;2.97;;
21416;SDS011;10869;52.238;10.716;2023-07-28T06:19:54;4.87;;;2.97;;
21416;SDS011;10869;52.238;10.716;2023-07-28T06:22:20;10.47;;;3.20;;
21416;SDS011;10869;52.238;10.716;2023-07-28T06:28:08;7.07;;;3.47;;
21416;SDS011;10869;52.238;10.716;2023-07-28T06:30:34;7.17;;;3.83;;
21416;SDS011;10869;52.238;10.716;2023-07-28T06:33:00;4.67;;;3.20;;
21416;SDS011;10869;52.238;10.716;2023-07-28T06:35:26;6.10;;;3.73;;
21416;SDS011;10869;52.238;10.716;2023-07-28T06:37:52;5.87;;;3.80;;
21416;SDS011;10869;52.238;10.716;2023-07-28T06:40:18;8.70;;;4.00;;
21416;SDS011;10869;52.238;10.716;2023-07-28T06:42:44;10.43;;;4.47;;
21416;SDS011;10869;52.238;10.716;2023-07-28T06:45:10;7.13;;;4.77;;
21416;SDS011;10869;52.238;10.716;2023-07-28T06:47:35;14.30;;;7.90;;
21416;SDS011;10869;52.238;10.716;2023-07-28T06:50:01;8.57;;;5.17;;
21416;SDS011;10869;52.238;10.716;2023-07-28T06:52:27;7.73;;;4.67;;
21416;SDS011;10869;52.238;10.716;2023-07-28T06:54:52;11.03;;;5.10;;
21416;SDS011;10869;52.238;10.716;2023-07-28T06:57:19;7.30;;;4.33;;
21416;SDS011;10869;52.238;10.716;2023-07-28T06:59:45;7.17;;;4.47;;
21416;SDS011;10869;52.238;10.716;2023-07-28T07:02:11;6.83;;;4.50;;
21416;SDS011;10869;52.238;10.716;2023-07-28T07:04:40;7.03;;;4.20;;
21416;SDS011;10869;52.238;10.716;2023-07-28T07:10:28;7.40;;;5.13;;
21416;SDS011;10869;52.238;10.716;2023-07-28T07:12:55;6.63;;;4.40;;
21416;SDS011;10869;52.238;10.716;2023-07-28T07:15:21;8.87;;;4.70;;
21416;SDS011;10869;52.238;10.716;2023-07-28T07:17:47;9.07;;;5.00;;
21416;SDS011;10869;52.238;10.716;2023-07-28T07:20:13;7.40;;;4.90;;
21416;SDS011;10869;52.238;10.716;2023-07-28T07:22:40;7.37;;;5.20;;
21416;SDS011;10869;52.238;10.716;2023-07-28T07:25:06;8.83;;;4.50;;
21416;SDS011;10869;52.238;10.716;2023-07-28T07:34:20;8.13;;;4.30;;
21416;SDS011;10869;52.238;10.716;2023-07-28T07:44:32;8.03;;;4.13;;
21416;SDS011;10869;52.238;10.716;2023-07-28T07:47:00;7.57;;;4.67;;
21416;SDS011;10869;52.238;10.716;2023-07-28T08:05:51;11.70;;;6.23;;
21416;SDS011;10869;52.238;10.716;2023-07-28T08:08:17;12.57;;;6.97;;
21416;SDS011;10869;52.238;10.716;2023-07-28T08:14:08;15.80;;;6.60;;
21416;SDS011;10869;52.238;10.716;2023-07-28T08:19:56;10.20;;;7.07;;
21416;SDS011;10869;52.238;10.716;2023-07-28T08:22:21;10.20;;;7.30;;
21416;SDS011;10869;52.238;10.716;2023-07-28T08:24:47;13.23;;;7.20;;
21416;SDS011;10869;52.238;10.716;2023-07-28T08:30:35;8.83;;;6.87;;
21416;SDS011;10869;52.238;10.716;2023-07-28T08:33:00;11.10;;;7.10;;
21416;SDS011;10869;52.238;10.716;2023-07-28T08:35:27;10.00;;;7.23;;
21416;SDS011;10869;52.238;10.716;2023-07-28T08:37:52;10.07;;;7.47;;
21416;SDS011;10869;52.238;10.716;2023-07-28T08:40:18;11.13;;;7.33;;
21416;SDS011;10869;52.238;10.716;2023-07-28T08:42:44;10.87;;;7.50;;
21416;SDS011;10869;52.238;10.716;2023-07-28T08:45:10;8.60;;;7.17;;
21416;SDS011;10869;52.238;10.716;2023-07-28T08:47:36;10.93;;;7.40;;
21416;SDS011;10869;52.238;10.716;2023-07-28T08:50:03;8.27;;;6.53;;
21416;SDS011;10869;52.238;10.716;2023-07-28T08:57:47;9.03;;;5.77;;
21416;SDS011;10869;52.238;10.716;2023-07-28T09:00:16;8.03;;;6.03;;
21416;SDS011;10869;52.238;10.716;2023-07-28T09:02:43;8.30;;;6.40;;
21416;SDS011;10869;52.238;10.716;2023-07-28T09:05:22;11.10;;;6.00;;
21416;SDS011;10869;52.238;10.716;2023-07-28T09:07:49;8.67;;;5.90;;
21416;SDS011;10869;52.238;10.716;2023-07-28T09:10:15;7.33;;;5.60;;
21416;SDS011;10869;52.238;10.716;2023-07-28T09:12:47;7.77;;;6.47;;
21416;SDS011;10869;52.238;10.716;2023-07-28T09:15:14;6.90;;;5.60;;
21416;SDS011;10869;52.238;10.716;2023-07-28T09:17:45;7.43;;;5.70;;
21416;SDS011;10869;52.238;10.716;2023-07-28T09:20:14;7.60;;;5.43;;
21416;SDS011;10869;52.238;10.716;2023-07-28T09:22:42;7.73;;;6.00;;
21416;SDS011;10869;52.238;10.716;2023-07-28T09:25:12;7.53;;;5.70;;
21416;SDS011;10869;52.238;10.716;2023-07-28T09:27:39;7.13;;;5.67;;
21416;SDS011;10869;52.238;10.716;2023-07-28T09:30:05;8.43;;;5.93;;
21416;SDS011;10869;52.238;10.716;2023-07-28T09:32:33;7.40;;;5.57;;
21416;SDS011;10869;52.238;10.716;2023-07-28T09:35:10;9.10;;;5.60;;
21416;SDS011;10869;52.238;10.716;2023-07-28T09:37:39;10.43;;;5.90;;
21416;SDS011;10869;52.238;10.716;2023-07-28T09:40:09;6.80;;;5.67;;
21416;SDS011;10869;52.238;10.716;2023-07-28T09:49:37;7.37;;;5.27;;
21416;SDS011;10869;52.238;10.716;2023-07-28T09:52:10;7.13;;;5.20;;
21416;SDS011;10869;52.238;10.716;2023-07-28T09:58:02;6.60;;;5.10;;
21416;SDS011;10869;52.238;10.716;2023-07-28T10:00:31;6.90;;;4.77;;
21416;SDS011;10869;52.238;10.716;2023-07-28T10:03:01;6.80;;;5.03;;
21416;SDS011;10869;52.238;10.716;2023-07-28T10:05:29;7.30;;;5.23;;
21416;SDS011;10869;52.238;10.716;2023-07-28T10:13:18;10.57;;;4.90;;
21416;SDS011;10869;52.238;10.716;2023-07-28T10:15:49;7.97;;;4.27;;
21416;SDS011;10869;52.238;10.716;2023-07-28T10:18:15;7.40;;;4.67;;
21416;SDS011;10869;52.238;10.716;2023-07-28T10:24:06;6.13;;;3.87;;
21416;SDS011;10869;52.238;10.716;2023-07-28T10:26:44;5.17;;;3.73;;
21416;SDS011;10869;52.238;10.716;2023-07-28T10:29:12;5.37;;;3.90;;
21416;SDS011;10869;52.238;10.716;2023-07-28T10:31:54;7.60;;;3.50;;
21416;SDS011;10869;52.238;10.716;2023-07-28T10:34:24;6.40;;;3.37;;
21416;SDS011;10869;52.238;10.716;2023-07-28T10:37:03;6.50;;;3.73;;
21416;SDS011;10869;52.238;10.716;2023-07-28T10:43:06;6.60;;;3.43;;
21416;SDS011;10869;52.238;10.716;2023-07-28T10:53:35;4.67;;;2.60;;
21416;SDS011;10869;52.238;10.716;2023-07-28T10:59:25;4.30;;;2.63;;
21416;SDS011;10869;52.238;10.716;2023-07-28T11:01:51;6.07;;;2.70;;
21416;SDS011;10869;52.238;10.716;2023-07-28T11:07:42;4.23;;;2.37;;
21416;SDS011;10869;52.238;10.716;2023-07-28T11:12:48;2.87;;;2.17;;
21416;SDS011;10869;52.238;10.716;2023-07-28T11:18:37;3.40;;;2.27;;
21416;SDS011;10869;52.238;10.716;2023-07-28T11:21:03;4.87;;;2.10;;
21416;SDS011;10869;52.238;10.716;2023-07-28T11:27:00;3.30;;;2.40;;
21416;SDS011;10869;52.238;10.716;2023-07-28T11:32:14;2.87;;;2.27;;
21416;SDS011;10869;52.238;10.716;2023-07-28T11:37:19;9.43;;;2.90;;
21416;SDS011;10869;52.238;10.716;2023-07-28T12:35:37;6.20;;;3.10;;
21416;SDS011;10869;52.238;10.716;2023-07-28T12:38:03;5.20;;;2.90;;
21416;SDS011;10869;52.238;10.716;2023-07-28T12:40:30;5.20;;;3.47;;
21416;SDS011;10869;52.238;10.716;2023-07-28T12:55:54;4.30;;;2.90;;
21416;SDS011;10869;52.238;10.716;2023-07-28T12:58:23;4.63;;;2.97;;
21416;SDS011;10869;52.238;10.716;2023-07-28T13:00:49;5.03;;;3.13;;
21416;SDS011;10869;52.238;10.716;2023-07-28T13:03:25;5.80;;;2.70;;
21416;SDS011;10869;52.238;10.716;2023-07-28T13:05:58;4.73;;;2.83;;
21416;SDS011;10869;52.238;10.716;2023-07-28T13:11:54;4.83;;;2.63;;
21416;SDS011;10869;52.238;10.716;2023-07-28T13:14:26;6.30;;;2.70;;
21416;SDS011;10869;52.238;10.716;2023-07-28T13:17:17;5.67;;;3.10;;
21416;SDS011;10869;52.238;10.716;2023-07-28T13:19:49;5.17;;;2.93;;
21416;SDS011;10869;52.238;10.716;2023-07-28T13:36:16;5.10;;;2.07;;
21416;SDS011;10869;52.238;10.716;2023-07-28T13:38:44;5.57;;;2.10;;
21416;SDS011;10869;52.238;10.716;2023-07-28T13:41:48;5.40;;;2.07;;
21416;SDS011;10869;52.238;10.716;2023-07-28T13:44:15;3.53;;;1.97;;
21416;SDS011;10869;52.238;10.716;2023-07-28T13:46:41;4.20;;;2.40;;
21416;SDS011;10869;52.238;10.716;2023-07-28T13:49:06;5.90;;;2.07;;
21416;SDS011;10869;52.238;10.716;2023-07-28T13:51:32;3.93;;;2.23;;
21416;SDS011;10869;52.238;10.716;2023-07-28T13:53:58;4.60;;;2.43;;
21416;SDS011;10869;52.238;10.716;2023-07-28T13:56:24;5.03;;;2.30;;
21416;SDS011;10869;52.238;10.716;2023-07-28T14:01:26;3.57;;;2.10;;
21416;SDS011;10869;52.238;10.716;2023-07-28T14:03:54;4.50;;;2.50;;
21416;SDS011;10869;52.238;10.716;2023-07-28T14:55:35;3.35;;;2.03;;
21416;SDS011;10869;52.238;10.716;2023-07-28T14:58:06;3.65;;;2.00;;
21416;SDS011;10869;52.238;10.716;2023-07-28T15:00:46;7.38;;;1.90;;
21416;SDS011;10869;52.238;10.716;2023-07-28T15:03:16;5.32;;;1.80;;
21416;SDS011;10869;52.238;10.716;2023-07-28T15:06:21;4.40;;;2.10;;
21416;SDS011;10869;52.238;10.716;2023-07-28T15:08:47;3.90;;;2.03;;
21416;SDS011;10869;52.238;10.716;2023-07-28T15:11:13;5.85;;;1.67;;
21416;SDS011;10869;52.238;10.716;2023-07-28T15:13:40;4.55;;;2.15;;
21416;SDS011;10869;52.238;10.716;2023-07-28T15:16:06;4.18;;;1.92;;
21416;SDS011;10869;52.238;10.716;2023-07-28T15:18:32;2.40;;;1.60;;
21416;SDS011;10869;52.238;10.716;2023-07-28T15:21:01;7.25;;;2.35;;
21416;SDS011;10869;52.238;10.716;2023-07-28T15:23:27;3.87;;;1.90;;
21416;SDS011;10869;52.238;10.716;2023-07-28T15:25:54;2.33;;;1.63;;
21416;SDS011;10869;52.238;10.716;2023-07-28T15:28:22;2.95;;;2.00;;
21416;SDS011;10869;52.238;10.716;2023-07-28T15:30:48;3.80;;;2.00;;
21416;SDS011;10869;52.238;10.716;2023-07-28T15:33:19;5.45;;;1.88;;
21416;SDS011;10869;52.238;10.716;2023-07-28T15:35:46;4.43;;;2.10;;
21416;SDS011;10869;52.238;10.716;2023-07-28T15:38:13;6.93;;;2.47;;
21416;SDS011;10869;52.238;10.716;2023-07-28T15:40:39;3.17;;;1.73;;
21416;SDS011;10869;52.238;10.716;2023-07-28T15:43:05;3.80;;;2.40;;
21416;SDS011;10869;52.238;10.716;2023-07-28T15:45:31;4.73;;;2.10;;
21416;SDS011;10869;52.238;10.716;2023-07-28T15:47:57;5.80;;;2.03;;
21416;SDS011;10869;52.238;10.716;2023-07-28T15:50:23;6.40;;;2.73;;
21416;SDS011;10869;52.238;10.716;2023-07-28T15:52:49;6.07;;;2.30;;
21416;SDS011;10869;52.238;10.716;2023-07-28T15:58:38;6.03;;;2.60;;
21416;SDS011;10869;52.238;10.716;2023-07-28T16:01:04;3.77;;;2.10;;
21416;SDS011;10869;52.238;10.716;2023-07-28T16:03:30;6.47;;;2.30;;
21416;SDS011;10869;52.238;10.716;2023-07-28T16:05:56;5.60;;;2.10;;
21416;SDS011;10869;52.238;10.716;2023-07-28T16:08:28;5.60;;;2.30;;
21416;SDS011;10869;52.238;10.716;2023-07-28T16:10:55;5.97;;;2.87;;
21416;SDS011;10869;52.238;10.716;2023-07-28T16:13:21;5.03;;;2.47;;
21416;SDS011;10869;52.238;10.716;2023-07-28T17:21:21;6.23;;;3.20;;
21416;SDS011;10869;52.238;10.716;2023-07-28T17:23:50;6.47;;;3.47;;
21416;SDS011;10869;52.238;10.716;2023-07-28T17:26:18;6.70;;;4.10;;
21416;SDS011;10869;52.238;10.716;2023-07-28T17:28:50;6.80;;;3.63;;
21416;SDS011;10869;52.238;10.716;2023-07-28T17:31:16;8.30;;;3.97;;
21416;SDS011;10869;52.238;10.716;2023-07-28T17:33:44;10.33;;;4.83;;
21416;SDS011;10869;52.238;10.716;2023-07-28T17:36:10;7.63;;;4.40;;
21416;SDS011;10869;52.238;10.716;2023-07-28T17:38:39;8.17;;;4.27;;
21416;SDS011;10869;52.238;10.716;2023-07-28T17:41:07;8.57;;;4.23;;
21416;SDS011;10869;52.238;10.716;2023-07-28T17:43:39;8.37;;;4.17;;
21416;SDS011;10869;52.238;10.716;2023-07-28T17:46:05;7.37;;;4.27;;
21416;SDS011;10869;52.238;10.716;2023-07-28T17:48:31;5.37;;;3.40;;
21416;SDS011;10869;52.238;10.716;2023-07-28T17:51:00;7.03;;;3.80;;
21416;SDS011;10869;52.238;10.716;2023-07-28T17:53:30;8.00;;;3.83;;
21416;SDS011;10869;52.238;10.716;2023-07-28T17:55:56;5.50;;;3.70;;
21416;SDS011;10869;52.238;10.716;2023-07-28T17:58:23;8.07;;;3.90;;
21416;SDS011;10869;52.238;10.716;2023-07-28T18:00:49;6.03;;;3.70;;
21416;SDS011;10869;52.238;10.716;2023-07-28T18:03:17;7.00;;;4.17;;
21416;SDS011;10869;52.238;10.716;2023-07-28T18:05:46;6.37;;;4.07;;
21416;SDS011;10869;52.238;10.716;2023-07-28T18:08:12;7.13;;;3.83;;
21416;SDS011;10869;52.238;10.716;2023-07-28T18:10:40;8.00;;;3.30;;
21416;SDS011;10869;52.238;10.716;2023-07-28T18:13:16;5.33;;;3.80;;
21416;SDS011;10869;52.238;10.716;2023-07-28T18:15:46;8.00;;;3.67;;
21416;SDS011;10869;52.238;10.716;2023-07-28T18:18:13;6.40;;;3.60;;
21416;SDS011;10869;52.238;10.716;2023-07-28T18:20:44;7.53;;;3.77;;
21416;SDS011;10869;52.238;10.716;2023-07-28T18:23:10;7.27;;;4.00;;
21416;SDS011;10869;52.238;10.716;2023-07-28T18:25:38;7.47;;;3.77;;
21416;SDS011;10869;52.238;10.716;2023-07-28T18:28:04;7.20;;;3.80;;
21416;SDS011;10869;52.238;10.716;2023-07-28T18:30:33;6.33;;;3.47;;
21416;SDS011;10869;52.238;10.716;2023-07-28T18:33:02;7.10;;;3.83;;
21416;SDS011;10869;52.238;10.716;2023-07-28T18:35:33;8.67;;;4.00;;
21416;SDS011;10869;52.238;10.716;2023-07-28T18:37:59;13.83;;;4.17;;
21416;SDS011;10869;52.238;10.716;2023-07-28T18:42:58;7.90;;;3.33;;
21416;SDS011;10869;52.238;10.716;2023-07-28T18:45:24;6.83;;;4.23;;
21416;SDS011;10869;52.238;10.716;2023-07-28T18:47:53;6.03;;;4.00;;
21416;SDS011;10869;52.238;10.716;2023-07-28T18:50:19;5.43;;;3.60;;
21416;SDS011;10869;52.238;10.716;2023-07-28T18:52:45;5.57;;;3.50;;
21416;SDS011;10869;52.238;10.716;2023-07-28T18:58:32;6.63;;;3.50;;
21416;SDS011;10869;52.238;10.716;2023-07-28T19:00:58;6.43;;;3.50;;
21416;SDS011;10869;52.238;10.716;2023-07-28T19:03:26;5.57;;;3.70;;
21416;SDS011;10869;52.238;10.716;2023-07-28T19:05:57;6.93;;;4.00;;
21416;SDS011;10869;52.238;10.716;2023-07-28T19:08:23;6.73;;;4.03;;
21416;SDS011;10869;52.238;10.716;2023-07-28T19:10:49;8.60;;;4.53;;
21416;SDS011;10869;52.238;10.716;2023-07-28T19:13:15;8.37;;;5.00;;
21416;SDS011;10869;52.238;10.716;2023-07-28T19:19:03;8.20;;;4.30;;
21416;SDS011;10869;52.238;10.716;2023-07-28T19:21:29;7.03;;;4.33;;
21416;SDS011;10869;52.238;10.716;2023-07-28T19:23:55;9.63;;;5.00;;
21416;SDS011;10869;52.238;10.716;2023-07-28T19:26:21;8.07;;;4.60;;
21416;SDS011;10869;52.238;10.716;2023-07-28T19:28:47;7.13;;;4.37;;
21416;SDS011;10869;52.238;10.716;2023-07-28T19:31:13;9.37;;;5.03;;
21416;SDS011;10869;52.238;10.716;2023-07-28T19:33:39;7.37;;;4.83;;
21416;SDS011;10869;52.238;10.716;2023-07-28T19:36:05;9.00;;;4.47;;
21416;SDS011;10869;52.238;10.716;2023-07-28T19:41:53;8.77;;;5.17;;
21416;SDS011;10869;52.238;10.716;2023-07-28T19:44:20;8.30;;;4.40;;
21416;SDS011;10869;52.238;10.716;2023-07-28T19:46:45;7.50;;;4.40;;
21416;SDS011;10869;52.238;10.716;2023-07-28T19:49:11;8.57;;;5.10;;
21416;SDS011;10869;52.238;10.716;2023-07-28T19:51:37;8.87;;;4.40;;
21416;SDS011;10869;52.238;10.716;2023-07-28T19:54:03;6.43;;;4.43;;
21416;SDS011;10869;52.238;10.716;2023-07-28T19:56:28;9.13;;;4.53;;
21416;SDS011;10869;52.238;10.716;2023-07-28T19:58:54;9.77;;;4.90;;
21416;SDS011;10869;52.238;10.716;2023-07-28T20:01:21;7.90;;;4.37;;
21416;SDS011;10869;52.238;10.716;2023-07-28T20:03:49;7.70;;;4.87;;
21416;SDS011;10869;52.238;10.716;2023-07-28T20:09:37;8.50;;;4.83;;
21416;SDS011;10869;52.238;10.716;2023-07-28T20:15:24;7.23;;;5.30;;
21416;SDS011;10869;52.238;10.716;2023-07-28T20:17:50;7.57;;;5.23;;
21416;SDS011;10869;52.238;10.716;2023-07-28T20:23:37;9.03;;;5.03;;
21416;SDS011;10869;52.238;10.716;2023-07-28T20:26:03;7.10;;;4.73;;
21416;SDS011;10869;52.238;10.716;2023-07-28T20:28:31;7.73;;;4.80;;
21416;SDS011;10869;52.238;10.716;2023-07-28T20:34:19;6.70;;;4.87;;
21416;SDS011;10869;52.238;10.716;2023-07-28T20:36:45;8.30;;;4.87;;
21416;SDS011;10869;52.238;10.716;2023-07-28T20:39:10;7.80;;;5.50;;
21416;SDS011;10869;52.238;10.716;2023-07-28T20:41:36;9.70;;;5.23;;
21416;SDS011;10869;52.238;10.716;2023-07-28T20:47:27;10.00;;;5.80;;
21416;SDS011;10869;52.238;10.716;2023-07-28T20:53:15;9.93;;;5.30;;
21416;SDS011;10869;52.238;10.716;2023-07-28T20:55:47;9.63;;;5.13;;
21416;SDS011;10869;52.238;10.716;2023-07-28T20:58:14;7.77;;;5.40;;
21416;SDS011;10869;52.238;10.716;2023-07-28T21:00:40;9.43;;;5.50;;
21416;SDS011;10869;52.238;10.716;2023-07-28T21:03:05;12.73;;;6.30;;
21416;SDS011;10869;52.238;10.716;2023-07-28T21:08:53;9.47;;;5.80;;
21416;SDS011;10869;52.238;10.716;2023-07-28T21:14:41;8.20;;;5.43;;
21416;SDS011;10869;52.238;10.716;2023-07-28T21:17:07;8.13;;;5.67;;
21416;SDS011;10869;52.238;10.716;2023-07-28T21:19:32;9.73;;;4.77;;
21416;SDS011;10869;52.238;10.716;2023-07-28T21:21:58;7.90;;;5.20;;
21416;SDS011;10869;52.238;10.716;2023-07-28T21:27:46;8.80;;;5.17;;
21416;SDS011;10869;52.238;10.716;2023-07-28T21:30:11;8.10;;;4.77;;
21416;SDS011;10869;52.238;10.716;2023-07-28T21:32:37;7.67;;;5.23;;
21416;SDS011;10869;52.238;10.716;2023-07-28T21:35:03;8.33;;;5.40;;
21416;SDS011;10869;52.238;10.716;2023-07-28T21:37:30;8.63;;;4.63;;
21416;SDS011;10869;52.238;10.716;2023-07-28T21:39:56;8.60;;;5.53;;
21416;SDS011;10869;52.238;10.716;2023-07-28T21:42:22;9.73;;;5.23;;
21416;SDS011;10869;52.238;10.716;2023-07-28T21:44:48;8.23;;;5.30;;
21416;SDS011;10869;52.238;10.716;2023-07-28T21:47:13;7.60;;;4.70;;
21416;SDS011;10869;52.238;10.716;2023-07-28T21:49:39;7.77;;;4.53;;
21416;SDS011;10869;52.238;10.716;2023-07-28T21:52:05;8.33;;;5.10;;
21416;SDS011;10869;52.238;10.716;2023-07-28T21:54:31;9.67;;;5.03;;
21416;SDS011;10869;52.238;10.716;2023-07-28T21:56:57;6.60;;;4.50;;
21416;SDS011;10869;52.238;10.716;2023-07-28T21:59:23;9.60;;;4.77;;
21416;SDS011;10869;52.238;10.716;2023-07-28T22:01:50;7.63;;;4.57;;
21416;SDS011;10869;52.238;10.716;2023-07-28T22:04:15;8.27;;;4.90;;
21416;SDS011;10869;52.238;10.716;2023-07-28T22:06:41;9.30;;;5.00;;
21416;SDS011;10869;52.238;10.716;2023-07-28T22:09:07;9.60;;;4.30;;
21416;SDS011;10869;52.238;10.716;2023-07-28T22:11:33;7.37;;;4.33;;
21416;SDS011;10869;52.238;10.716;2023-07-28T22:13:58;9.60;;;4.20;;
21416;SDS011;10869;52.238;10.716;2023-07-28T22:16:24;7.70;;;4.47;;
21416;SDS011;10869;52.238;10.716;2023-07-28T22:18:50;6.93;;;4.33;;
21416;SDS011;10869;52.238;10.716;2023-07-28T22:21:16;5.87;;;3.80;;
21416;SDS011;10869;52.238;10.716;2023-07-28T22:23:42;5.43;;;3.77;;
21416;SDS011;10869;52.238;10.716;2023-07-28T22:26:08;6.07;;;3.80;;
21416;SDS011;10869;52.238;10.716;2023-07-28T22:28:34;7.63;;;3.80;;
21416;SDS011;10869;52.238;10.716;2023-07-28T22:30:59;6.27;;;3.77;;
21416;SDS011;10869;52.238;10.716;2023-07-28T22:33:25;6.33;;;4.00;;
21416;SDS011;10869;52.238;10.716;2023-07-28T22:35:51;6.87;;;4.00;;
21416;SDS011;10869;52.238;10.716;2023-07-28T22:38:17;9.13;;;3.47;;
21416;SDS011;10869;52.238;10.716;2023-07-28T22:40:43;6.13;;;3.70;;
21416;SDS011;10869;52.238;10.716;2023-07-28T22:43:09;5.40;;;3.57;;
21416;SDS011;10869;52.238;10.716;2023-07-28T22:45:34;8.10;;;3.70;;
21416;SDS011;10869;52.238;10.716;2023-07-28T22:48:00;8.30;;;4.17;;
21416;SDS011;10869;52.238;10.716;2023-07-28T22:50:26;8.33;;;4.30;;
21416;SDS011;10869;52.238;10.716;2023-07-28T22:52:52;7.93;;;3.70;;
21416;SDS011;10869;52.238;10.716;2023-07-28T22:55:18;7.07;;;3.73;;
21416;SDS011;10869;52.238;10.716;2023-07-28T22:57:44;5.97;;;3.10;;
